createdAt,value
2022-12-27T00:00:51.592Z,12.49
2022-12-27T00:03:23.841Z,12.62
2022-12-27T00:06:03.002Z,12.49
2022-12-27T00:08:32.573Z,12.53
2022-12-27T00:11:06.175Z,12.58
2022-12-27T00:13:40.364Z,12.54
2022-12-27T00:16:23.248Z,12.51
2022-12-27T00:18:54.220Z,12.57
2022-12-27T00:21:23.788Z,12.54
2022-12-27T00:23:55.055Z,12.48
2022-12-27T00:26:26.976Z,12.51
2022-12-27T00:29:04.663Z,12.36
2022-12-27T00:31:35.084Z,12.50
2022-12-27T00:34:07.367Z,12.38
2022-12-27T00:36:39.694Z,12.34
2022-12-27T00:39:09.125Z,12.34
2022-12-27T00:41:40.734Z,12.27
2022-12-27T00:44:15.068Z,12.21
2022-12-27T00:46:46.213Z,12.08
2022-12-27T00:49:17.625Z,12.08
2022-12-27T00:51:49.506Z,11.97
2022-12-27T00:54:20.289Z,11.87
2022-12-27T00:56:49.669Z,11.85
2022-12-27T00:59:21.720Z,11.75
2022-12-27T01:01:53.580Z,11.68
2022-12-27T01:04:24.713Z,11.75
2022-12-27T01:07:01.232Z,11.72
2022-12-27T01:09:43.192Z,11.72
2022-12-27T01:12:16.117Z,11.59
2022-12-27T01:14:51.538Z,11.58
2022-12-27T01:17:35.348Z,11.67
2022-12-27T01:20:10.866Z,11.53
2022-12-27T01:22:45.737Z,11.54
2022-12-27T01:25:28.485Z,11.48
2022-12-27T01:27:59.389Z,11.44
2022-12-27T01:30:37.973Z,11.41
2022-12-27T01:33:16.145Z,11.41
2022-12-27T01:35:50.220Z,11.39
2022-12-27T01:38:21.335Z,11.36
2022-12-27T01:40:52.144Z,11.32
2022-12-27T01:43:23.206Z,11.30
2022-12-27T01:45:58.693Z,11.34
2022-12-27T01:48:32.299Z,11.33
2022-12-27T01:51:05.467Z,11.24
2022-12-27T01:53:45.000Z,11.30
2022-12-27T01:56:27.832Z,11.22
2022-12-27T01:59:12.362Z,11.32
2022-12-27T02:01:48.887Z,11.33
2022-12-27T02:04:27.477Z,11.27
2022-12-27T02:07:00.111Z,11.20
2022-12-27T02:09:38.360Z,11.26
2022-12-27T02:12:13.133Z,11.15
2022-12-27T02:14:47.575Z,11.13
2022-12-27T02:17:26.546Z,11.13
2022-12-27T02:20:01.597Z,11.22
2022-12-27T02:23:18.480Z,11.16
2022-12-27T02:26:17.652Z,11.12
2022-12-27T02:29:17.659Z,11.13
2022-12-27T02:31:59.875Z,11.15
2022-12-27T02:34:35.140Z,11.05
2022-12-27T02:37:19.431Z,11.02
2022-12-27T02:39:51.005Z,10.96
2022-12-27T02:42:40.739Z,11.13
2022-12-27T02:45:38.542Z,11.02
2022-12-27T02:48:32.044Z,11.05
2022-12-27T02:51:28.475Z,11.02
2022-12-27T02:54:01.930Z,10.98
2022-12-27T02:56:53.715Z,11.06
2022-12-27T03:00:15.716Z,10.98
2022-12-27T03:03:19.610Z,10.95
2022-12-27T03:06:36.953Z,11.03
2022-12-27T03:09:13.280Z,10.90
2022-12-27T03:12:05.744Z,10.91
2022-12-27T03:14:59.581Z,10.92
2022-12-27T03:17:42.835Z,10.80
2022-12-27T03:20:38.370Z,10.79
2022-12-27T03:23:30.828Z,10.81
2022-12-27T03:26:07.830Z,10.82
2022-12-27T03:28:56.227Z,10.65
2022-12-27T03:31:49.922Z,10.73
2022-12-27T03:34:43.763Z,10.71
2022-12-27T03:37:41.631Z,10.78
2022-12-27T03:40:37.338Z,10.63
2022-12-27T03:43:14.408Z,10.72
2022-12-27T03:46:16.917Z,10.63
2022-12-27T03:49:01.143Z,10.65
2022-12-27T03:51:36.400Z,10.74
2022-12-27T03:54:26.912Z,10.56
2022-12-27T03:56:57.283Z,10.59
2022-12-27T03:59:33.127Z,10.58
2022-12-27T04:02:12.079Z,10.52
2022-12-27T04:04:42.581Z,10.56
2022-12-27T04:07:14.248Z,10.54
2022-12-27T04:10:06.582Z,10.41
2022-12-27T04:12:54.137Z,10.36
2022-12-27T04:15:44.180Z,10.55
2022-12-27T04:18:34.165Z,10.37
2022-12-27T04:21:24.259Z,10.40
2022-12-27T04:24:12.957Z,10.35
2022-12-27T04:27:12.682Z,10.17
2022-12-27T04:30:03.656Z,10.15
2022-12-27T04:32:49.618Z,10.17
2022-12-27T04:35:22.527Z,10.11
2022-12-27T04:37:52.310Z,10.12
2022-12-27T04:40:49.596Z,10.04
2022-12-27T04:43:46.876Z,10.00
2022-12-27T04:46:44.223Z,9.89
2022-12-27T04:49:40.687Z,10.01
2022-12-27T04:52:35.639Z,10.17
2022-12-27T04:55:13.386Z,10.07
2022-12-27T04:57:42.786Z,10.03
2022-12-27T05:00:32.911Z,9.99
2022-12-27T05:03:03.699Z,9.99
2022-12-27T05:05:32.381Z,9.97
2022-12-27T05:08:32.217Z,9.93
2022-12-27T05:11:22.335Z,9.95
2022-12-27T05:14:09.977Z,10.04
2022-12-27T05:16:45.765Z,9.99
2022-12-27T05:19:26.254Z,9.86
2022-12-27T05:22:19.437Z,9.75
2022-12-27T05:25:10.252Z,9.87
2022-12-27T05:27:43.370Z,9.88
2022-12-27T05:30:15.008Z,9.73
2022-12-27T05:32:49.722Z,9.78
2022-12-27T05:35:24.777Z,9.86
2022-12-27T05:37:58.771Z,9.64
2022-12-27T05:40:31.165Z,9.68
2022-12-27T05:43:03.352Z,9.80
2022-12-27T05:45:32.667Z,9.70
2022-12-27T05:48:06.984Z,9.69
2022-12-27T05:50:40.958Z,9.66
2022-12-27T05:53:15.147Z,9.73
2022-12-27T05:55:46.833Z,9.69
2022-12-27T05:58:30.747Z,9.54
2022-12-27T06:01:00.885Z,9.47
2022-12-27T06:03:31.090Z,9.53
2022-12-27T06:06:04.413Z,9.44
2022-12-27T06:08:35.848Z,9.46
2022-12-27T06:11:09.073Z,9.45
2022-12-27T06:13:42.147Z,9.49
2022-12-27T06:16:17.620Z,9.36
2022-12-27T06:19:08.281Z,9.29
2022-12-27T06:21:41.064Z,9.09
2022-12-27T06:24:17.069Z,9.28
2022-12-27T06:26:48.014Z,9.03
2022-12-27T06:29:20.155Z,9.14
2022-12-27T06:31:58.841Z,9.00
2022-12-27T06:34:38.002Z,8.99
2022-12-27T06:37:08.977Z,8.89
2022-12-27T06:39:44.672Z,8.93
2022-12-27T06:42:24.876Z,9.06
2022-12-27T06:44:58.709Z,8.91
2022-12-27T06:47:28.953Z,8.90
2022-12-27T06:50:10.683Z,8.77
2022-12-27T06:52:44.595Z,8.50
2022-12-27T06:55:25.196Z,8.50
2022-12-27T06:58:03.426Z,8.73
2022-12-27T07:00:51.739Z,8.51
2022-12-27T07:03:30.069Z,8.52
2022-12-27T07:06:04.080Z,8.51
2022-12-27T07:08:48.304Z,8.39
2022-12-27T07:11:26.801Z,8.38
2022-12-27T07:14:01.570Z,8.13
2022-12-27T07:16:32.329Z,8.22
2022-12-27T07:19:03.088Z,8.28
2022-12-27T07:21:37.053Z,8.12
2022-12-27T07:24:17.862Z,8.20
2022-12-27T07:26:48.726Z,8.40
2022-12-27T07:29:30.033Z,8.48
2022-12-27T07:32:06.275Z,8.42
2022-12-27T07:34:43.590Z,8.48
2022-12-27T07:37:21.320Z,8.47
2022-12-27T07:39:54.474Z,8.55
2022-12-27T07:42:33.795Z,8.22
2022-12-27T07:45:12.457Z,8.13
2022-12-27T07:47:58.779Z,8.02
2022-12-27T07:50:27.556Z,8.00
2022-12-27T07:53:06.717Z,8.20
2022-12-27T07:55:39.428Z,8.04
2022-12-27T07:58:20.618Z,7.94
2022-12-27T08:01:01.326Z,7.73
2022-12-27T08:03:31.059Z,7.71
2022-12-27T08:06:00.298Z,7.89
2022-12-27T08:08:36.979Z,8.00
2022-12-27T08:11:06.968Z,8.31
2022-12-27T08:13:38.319Z,8.38
2022-12-27T08:16:21.311Z,8.12
2022-12-27T08:18:53.158Z,8.03
2022-12-27T08:21:24.578Z,8.09
2022-12-27T08:23:56.423Z,8.11
2022-12-27T08:26:27.027Z,8.12
2022-12-27T08:28:56.883Z,7.93
2022-12-27T08:31:29.198Z,8.14
2022-12-27T08:33:58.834Z,7.85
2022-12-27T08:36:54.038Z,8.02
2022-12-27T08:39:20.225Z,7.82
2022-12-27T08:41:49.448Z,7.73
2022-12-27T08:44:17.786Z,7.84
2022-12-27T08:46:50.604Z,7.64
2022-12-27T08:49:20.082Z,7.90
2022-12-27T08:51:53.465Z,7.58
2022-12-27T08:54:34.721Z,7.64
2022-12-27T08:57:09.275Z,7.56
2022-12-27T08:59:42.843Z,7.69
2022-12-27T09:02:17.095Z,7.63
2022-12-27T09:04:48.777Z,7.75
2022-12-27T09:07:22.767Z,7.59
2022-12-27T09:09:56.754Z,7.48
2022-12-27T09:12:26.684Z,7.54
2022-12-27T09:15:08.840Z,7.53
2022-12-27T09:17:56.151Z,7.63
2022-12-27T09:20:24.772Z,7.68
2022-12-27T09:23:02.351Z,7.61
2022-12-27T09:25:36.359Z,7.53
2022-12-27T09:28:08.094Z,8.00
2022-12-27T09:30:41.301Z,7.76
2022-12-27T09:33:10.872Z,7.91
2022-12-27T09:35:39.747Z,7.69
2022-12-27T09:38:11.570Z,7.68
2022-12-27T09:40:55.437Z,7.98
2022-12-27T09:43:27.955Z,7.90
2022-12-27T09:46:06.525Z,7.92
2022-12-27T09:48:39.749Z,7.75
2022-12-27T09:51:25.498Z,7.93
2022-12-27T09:54:04.547Z,7.61
2022-12-27T09:57:09.537Z,7.72
2022-12-27T09:59:35.438Z,7.79
2022-12-27T10:02:12.687Z,7.73
2022-12-27T10:05:19.324Z,7.73
2022-12-27T10:07:50.192Z,7.71
2022-12-27T10:10:29.274Z,7.81
2022-12-27T10:16:33.588Z,8.04
2022-12-27T10:19:21.375Z,7.49
2022-12-27T10:22:01.048Z,7.67
2022-12-27T10:24:37.044Z,7.65
2022-12-27T10:27:18.256Z,7.99
2022-12-27T10:29:50.833Z,7.86
2022-12-27T10:32:26.488Z,7.84
2022-12-27T10:35:01.738Z,8.02
2022-12-27T10:37:35.300Z,8.15
2022-12-27T10:40:23.714Z,8.09
2022-12-27T10:43:06.690Z,8.21
2022-12-27T10:45:59.155Z,8.31
2022-12-27T10:49:19.443Z,8.43
2022-12-27T10:51:36.507Z,7.89
2022-12-27T10:54:05.590Z,8.05
2022-12-27T10:56:36.156Z,8.11
2022-12-27T10:59:13.317Z,8.34
2022-12-27T11:01:43.191Z,7.89
2022-12-27T11:04:20.680Z,7.97
2022-12-27T11:06:51.709Z,7.89
2022-12-27T11:09:31.426Z,8.19
2022-12-27T11:12:20.598Z,7.95
2022-12-27T11:14:57.157Z,8.21
2022-12-27T11:17:28.533Z,8.29
2022-12-27T11:19:57.787Z,8.02
2022-12-27T11:22:26.808Z,8.07
2022-12-27T11:24:57.406Z,8.18
2022-12-27T11:27:27.312Z,8.20
2022-12-27T11:29:58.045Z,8.32
2022-12-27T11:32:27.675Z,8.41
2022-12-27T11:34:57.942Z,8.37
2022-12-27T11:37:28.263Z,8.35
2022-12-27T11:40:12.147Z,8.09
2022-12-27T11:42:43.236Z,8.27
2022-12-27T11:45:14.193Z,8.27
2022-12-27T11:47:47.059Z,8.25
2022-12-27T11:50:32.865Z,8.28
2022-12-27T11:53:11.107Z,8.16
2022-12-27T11:55:58.525Z,8.07
2022-12-27T11:59:00.020Z,8.04
2022-12-27T12:01:45.329Z,8.06
2022-12-27T12:04:52.420Z,8.26
2022-12-27T12:07:43.301Z,8.04
2022-12-27T12:10:24.025Z,8.03
2022-12-27T12:13:31.731Z,7.98
2022-12-27T12:16:25.396Z,7.98
2022-12-27T12:19:09.865Z,7.99
2022-12-27T12:21:58.869Z,8.15
2022-12-27T12:25:02.484Z,8.05
2022-12-27T12:27:50.716Z,7.80
2022-12-27T12:31:03.919Z,8.02
2022-12-27T12:34:17.830Z,7.96
2022-12-27T12:37:03.424Z,8.09
2022-12-27T12:39:58.090Z,8.24
2022-12-27T12:42:41.345Z,7.87
2022-12-27T12:45:45.741Z,7.91
2022-12-27T12:48:46.878Z,8.06
2022-12-27T12:51:43.822Z,8.16
2022-12-27T12:54:36.726Z,7.96
2022-12-27T12:57:19.827Z,8.18
2022-12-27T13:00:08.941Z,7.95
2022-12-27T13:03:10.545Z,7.84
2022-12-27T13:05:50.010Z,7.94
2022-12-27T13:08:37.602Z,7.98
2022-12-27T13:11:24.769Z,8.19
2022-12-27T13:14:18.868Z,8.24
2022-12-27T13:17:08.311Z,8.12
2022-12-27T13:20:02.345Z,8.01
2022-12-27T13:22:44.721Z,7.88
2022-12-27T13:25:28.702Z,8.02
2022-12-27T13:28:09.251Z,8.06
2022-12-27T13:30:43.790Z,8.19
2022-12-27T13:33:26.232Z,7.98
2022-12-27T13:36:20.258Z,7.92
2022-12-27T13:39:12.477Z,7.97
2022-12-27T13:41:56.641Z,8.21
2022-12-27T13:44:50.425Z,8.10
2022-12-27T13:48:04.839Z,8.20
2022-12-27T13:51:20.340Z,7.91
2022-12-27T13:54:16.847Z,8.16
2022-12-27T13:56:55.643Z,8.35
2022-12-27T13:59:48.240Z,8.28
2022-12-27T14:03:20.215Z,8.05
2022-12-27T14:06:49.944Z,8.01
2022-12-27T14:09:33.813Z,8.20
2022-12-27T14:12:31.966Z,8.20
2022-12-27T14:15:19.019Z,8.02
2022-12-27T14:18:00.532Z,7.82
2022-12-27T14:20:55.385Z,7.89
2022-12-27T14:24:05.197Z,7.91
2022-12-27T14:27:14.851Z,8.07
2022-12-27T14:30:19.384Z,7.97
2022-12-27T14:33:28.061Z,8.05
2022-12-27T14:36:54.084Z,7.93
2022-12-27T14:40:13.344Z,8.06
2022-12-27T14:43:17.844Z,7.77
2022-12-27T14:46:28.062Z,7.75
2022-12-27T14:49:25.431Z,7.84
2022-12-27T14:52:44.267Z,7.83
2022-12-27T14:55:37.627Z,7.77
2022-12-27T14:58:22.283Z,7.78
2022-12-27T15:01:15.052Z,7.89
2022-12-27T15:04:00.653Z,7.73
2022-12-27T15:06:52.480Z,7.60
2022-12-27T15:09:34.467Z,7.71
2022-12-27T15:12:23.249Z,7.88
2022-12-27T15:15:15.687Z,7.75
2022-12-27T15:18:15.639Z,7.89
2022-12-27T15:21:14.539Z,7.74
2022-12-27T15:23:55.012Z,7.62
2022-12-27T15:26:37.495Z,7.82
2022-12-27T15:29:27.156Z,7.63
2022-12-27T15:32:23.487Z,7.53
2022-12-27T15:35:04.147Z,7.49
2022-12-27T15:38:15.137Z,7.64
2022-12-27T15:41:15.007Z,7.70
2022-12-27T15:44:14.999Z,7.63
2022-12-27T15:47:08.431Z,7.72
2022-12-27T15:50:02.568Z,7.63
2022-12-27T15:53:01.766Z,7.62
2022-12-27T15:55:55.429Z,7.68
2022-12-27T15:58:32.370Z,7.50
2022-12-27T16:01:31.239Z,7.50
2022-12-27T16:04:47.648Z,7.62
2022-12-27T16:10:48.500Z,7.45
2022-12-27T16:13:43.265Z,7.29
2022-12-27T16:16:58.613Z,7.39
2022-12-27T16:20:04.177Z,7.68
2022-12-27T16:22:44.689Z,7.43
2022-12-27T16:25:32.284Z,7.30
2022-12-27T16:28:05.608Z,7.45
2022-12-27T16:31:07.732Z,7.31
2022-12-27T16:33:46.913Z,7.30
2022-12-27T16:36:25.781Z,7.45
2022-12-27T16:39:28.298Z,7.40
2022-12-27T16:42:11.488Z,7.36
2022-12-27T16:45:26.127Z,7.26
2022-12-27T16:48:15.895Z,7.33
2022-12-27T16:51:04.064Z,7.40
2022-12-27T16:53:51.826Z,7.25
2022-12-27T16:56:25.690Z,7.35
2022-12-27T16:59:02.253Z,7.31
2022-12-27T17:02:16.409Z,7.46
2022-12-27T17:05:04.923Z,7.28
2022-12-27T17:08:19.388Z,7.45
2022-12-27T17:11:28.529Z,7.18
2022-12-27T17:14:02.743Z,6.96
2022-12-27T17:16:50.259Z,7.22
2022-12-27T17:19:29.204Z,7.10
2022-12-27T17:22:08.400Z,7.04
2022-12-27T17:24:38.307Z,7.19
2022-12-27T17:27:17.471Z,7.18
2022-12-27T17:30:01.476Z,7.09
2022-12-27T17:32:53.037Z,7.16
2022-12-27T17:35:32.880Z,7.05
2022-12-27T17:38:15.203Z,7.04
2022-12-27T17:40:54.723Z,7.15
2022-12-27T17:44:03.105Z,7.07
2022-12-27T17:46:43.076Z,7.06
2022-12-27T17:49:19.557Z,6.94
2022-12-27T17:52:11.050Z,7.01
2022-12-27T17:55:03.737Z,6.90
2022-12-27T17:58:04.517Z,6.88
2022-12-27T18:00:37.729Z,6.86
2022-12-27T18:03:18.171Z,6.77
2022-12-27T18:05:59.174Z,6.79
2022-12-27T18:08:34.315Z,7.15
2022-12-27T18:11:12.647Z,7.05
2022-12-27T18:13:56.804Z,7.01
2022-12-27T18:16:33.484Z,7.19
2022-12-27T18:19:05.747Z,6.96
2022-12-27T18:21:38.596Z,7.00
2022-12-27T18:24:29.241Z,7.15
2022-12-27T18:27:08.807Z,7.14
2022-12-27T18:29:44.369Z,6.94
2022-12-27T18:32:27.298Z,7.05
2022-12-27T18:34:58.911Z,6.84
2022-12-27T18:37:38.803Z,6.98
2022-12-27T18:40:25.492Z,7.03
2022-12-27T18:42:59.817Z,7.08
2022-12-27T18:45:31.238Z,7.01
2022-12-27T18:48:03.491Z,7.12
2022-12-27T18:50:48.719Z,7.06
2022-12-27T18:53:29.120Z,6.94
2022-12-27T18:56:03.184Z,7.01
2022-12-27T18:58:34.390Z,7.05
2022-12-27T19:01:06.383Z,6.98
2022-12-27T19:03:52.843Z,6.93
2022-12-27T19:06:26.989Z,6.90
2022-12-27T19:09:06.175Z,7.03
2022-12-27T19:11:52.879Z,7.06
2022-12-27T19:14:33.640Z,6.86
2022-12-27T19:17:10.976Z,6.96
2022-12-27T19:19:43.013Z,6.94
2022-12-27T19:22:33.429Z,7.03
2022-12-27T19:25:17.198Z,7.20
2022-12-27T19:28:06.211Z,7.00
2022-12-27T19:30:47.633Z,6.89
2022-12-27T19:33:29.436Z,7.06
2022-12-27T19:36:08.051Z,7.12
2022-12-27T19:38:48.140Z,7.04
2022-12-27T19:41:34.543Z,7.01
2022-12-27T19:44:12.517Z,7.05
2022-12-27T19:46:43.556Z,7.06
2022-12-27T19:49:44.786Z,6.98
2022-12-27T19:52:31.391Z,6.91
2022-12-27T19:55:04.104Z,6.82
2022-12-27T19:57:50.539Z,6.82
2022-12-27T20:00:30.776Z,6.78
2022-12-27T20:03:08.858Z,6.76
2022-12-27T20:06:11.844Z,6.64
2022-12-27T20:08:39.752Z,6.45
2022-12-27T20:11:19.561Z,6.38
2022-12-27T20:14:04.483Z,6.50
2022-12-27T20:16:38.432Z,6.58
2022-12-27T20:19:20.787Z,6.79
2022-12-27T20:22:01.493Z,6.87
2022-12-27T20:24:40.299Z,6.67
2022-12-27T20:27:23.828Z,6.57
2022-12-27T20:30:06.127Z,6.64
2022-12-27T20:32:44.341Z,6.63
2022-12-27T20:35:22.134Z,6.61
2022-12-27T20:37:58.445Z,6.68
2022-12-27T20:40:28.212Z,6.80
2022-12-27T20:43:01.866Z,6.70
2022-12-27T20:45:37.944Z,6.72
2022-12-27T20:48:11.466Z,6.64
2022-12-27T20:50:49.889Z,6.62
2022-12-27T20:53:28.118Z,6.61
2022-12-27T20:56:00.897Z,6.48
2022-12-27T20:58:48.403Z,6.60
2022-12-27T21:01:33.290Z,6.40
2022-12-27T21:04:06.924Z,6.31
2022-12-27T21:06:45.350Z,6.51
2022-12-27T21:09:13.533Z,6.46
2022-12-27T21:11:43.054Z,6.39
2022-12-27T21:14:22.358Z,6.41
2022-12-27T21:17:03.740Z,6.21
2022-12-27T21:19:36.658Z,6.29
2022-12-27T21:22:07.132Z,6.33
2022-12-27T21:24:36.640Z,6.22
2022-12-27T21:27:07.273Z,6.31
2022-12-27T21:29:39.241Z,6.10
2022-12-27T21:32:25.050Z,6.05
2022-12-27T21:34:55.510Z,6.13
2022-12-27T21:37:28.760Z,6.20
2022-12-27T21:40:01.253Z,6.02
2022-12-27T21:42:42.148Z,6.04
2022-12-27T21:45:19.453Z,6.10
2022-12-27T21:48:03.419Z,6.06
2022-12-27T21:50:38.077Z,5.98
2022-12-27T21:53:08.500Z,6.21
2022-12-27T21:55:40.058Z,5.96
2022-12-27T21:58:10.811Z,5.92
2022-12-27T22:00:45.056Z,5.99
2022-12-27T22:03:24.186Z,5.95
2022-12-27T22:05:56.480Z,6.07
2022-12-27T22:08:28.459Z,6.03
2022-12-27T22:11:06.196Z,6.02
2022-12-27T22:13:38.739Z,6.11
2022-12-27T22:16:21.697Z,6.16
2022-12-27T22:19:02.586Z,5.95
2022-12-27T22:21:42.854Z,6.10
2022-12-27T22:24:20.000Z,5.78
2022-12-27T22:26:58.845Z,6.03
2022-12-27T22:29:38.035Z,5.83
2022-12-27T22:32:14.910Z,5.94
2022-12-27T22:35:01.373Z,5.70
2022-12-27T22:37:32.157Z,5.68
2022-12-27T22:40:00.452Z,5.77
2022-12-27T22:42:35.319Z,5.61
2022-12-27T22:45:14.244Z,5.60
2022-12-27T22:47:54.757Z,5.40
2022-12-27T22:50:25.893Z,5.39
2022-12-27T22:52:56.554Z,5.38
2022-12-27T22:55:28.156Z,5.30
2022-12-27T22:58:08.944Z,5.43
2022-12-27T23:00:46.116Z,5.32
2022-12-27T23:03:19.817Z,5.33
2022-12-27T23:06:03.144Z,5.33
2022-12-27T23:08:32.638Z,5.49
2022-12-27T23:11:08.255Z,5.33
2022-12-27T23:13:36.734Z,5.36
2022-12-27T23:16:07.715Z,5.30
2022-12-27T23:18:41.637Z,5.38
2022-12-27T23:21:21.863Z,5.61
2022-12-27T23:24:02.987Z,5.53
2022-12-27T23:26:40.531Z,5.32
2022-12-27T23:29:15.190Z,5.34
2022-12-27T23:31:54.362Z,5.50
2022-12-27T23:34:29.340Z,5.42
2022-12-27T23:37:08.934Z,5.48
2022-12-27T23:39:44.978Z,5.28
2022-12-27T23:42:15.058Z,5.20
2022-12-27T23:44:46.390Z,5.23
2022-12-27T23:47:16.034Z,5.05
2022-12-27T23:49:49.860Z,4.78
2022-12-27T23:52:33.430Z,4.97
2022-12-27T23:55:10.141Z,5.16
2022-12-27T23:57:47.725Z,4.76
